North Conway, New Hampshire
Current Conditions -  °F | °C
As of 3:54 AM on Thursday 23 Oct 2014 (Local Time) from KIZG Reporting Station
Overcast Overcast  
Wind Chill:   Ceiling: 1200
Heat Index:   Visibility: 10mi
Dew Point:   Wind: 8mph
Humidity: 90%   Direction: 10°N
Pressure: 29.94"   Gusts: 20mph
Location:  44.05°N, 71.13°W
Report Text: KIZG 230754Z AUTO 01007G17KT 10SM OVC012 08/07 A2994 RMK AO2 RAE49 SLP140 P0003 T00830067
Loading
Personal Weather Stations






























Interactive Weather Map New forecast layout! Learn more

10-Day Weather Forecast

Advertisements
Track Severe Weather on mobile